sensor_id;sensor_type;location;lat;lon;timestamp;temperature;humidity
44277;DHT22;29973;43.742;1.236;2023-02-19T00:01:37;4.00;99.90
44277;DHT22;29973;43.742;1.236;2023-02-19T00:04:12;3.90;99.90
44277;DHT22;29973;43.742;1.236;2023-02-19T00:06:39;3.90;99.90
44277;DHT22;29973;43.742;1.236;2023-02-19T00:09:05;3.80;99.90
44277;DHT22;29973;43.742;1.236;2023-02-19T00:11:33;3.80;99.90
44277;DHT22;29973;43.742;1.236;2023-02-19T00:14:02;3.80;99.90
44277;DHT22;29973;43.742;1.236;2023-02-19T00:16:30;3.70;99.90
44277;DHT22;29973;43.742;1.236;2023-02-19T00:19:00;3.70;99.90
44277;DHT22;29973;43.742;1.236;2023-02-19T00:21:30;3.70;99.90
44277;DHT22;29973;43.742;1.236;2023-02-19T00:23:58;3.60;99.90
44277;DHT22;29973;43.742;1.236;2023-02-19T00:26:25;3.60;99.90
44277;DHT22;29973;43.742;1.236;2023-02-19T00:28:55;3.60;99.90
44277;DHT22;29973;43.742;1.236;2023-02-19T00:31:30;3.50;99.90
44277;DHT22;29973;43.742;1.236;2023-02-19T00:33:57;3.50;99.90
44277;DHT22;29973;43.742;1.236;2023-02-19T00:36:25;3.50;99.90
44277;DHT22;29973;43.742;1.236;2023-02-19T00:38:51;3.50;99.90
44277;DHT22;29973;43.742;1.236;2023-02-19T00:41:18;3.60;99.90
44277;DHT22;29973;43.742;1.236;2023-02-19T00:46:19;3.60;99.90
44277;DHT22;29973;43.742;1.236;2023-02-19T00:48:47;3.50;99.90
44277;DHT22;29973;43.742;1.236;2023-02-19T00:51:13;3.30;99.90
44277;DHT22;29973;43.742;1.236;2023-02-19T00:53:39;3.30;99.90
44277;DHT22;29973;43.742;1.236;2023-02-19T00:56:06;3.30;99.90
44277;DHT22;29973;43.742;1.236;2023-02-19T00:58:32;3.40;99.90
44277;DHT22;29973;43.742;1.236;2023-02-19T01:00:58;3.30;99.90
44277;DHT22;29973;43.742;1.236;2023-02-19T01:03:24;3.30;99.90
44277;DHT22;29973;43.742;1.236;2023-02-19T01:05:51;3.30;99.90
44277;DHT22;29973;43.742;1.236;2023-02-19T01:08:17;3.30;99.90
44277;DHT22;29973;43.742;1.236;2023-02-19T01:10:43;3.30;99.90
44277;DHT22;29973;43.742;1.236;2023-02-19T01:13:09;3.20;99.90
44277;DHT22;29973;43.742;1.236;2023-02-19T01:15:35;3.30;99.90
44277;DHT22;29973;43.742;1.236;2023-02-19T01:18:01;3.20;99.90
44277;DHT22;29973;43.742;1.236;2023-02-19T01:20:27;3.10;99.90
44277;DHT22;29973;43.742;1.236;2023-02-19T01:22:53;3.10;99.90
44277;DHT22;29973;43.742;1.236;2023-02-19T01:25:22;3.10;99.90
44277;DHT22;29973;43.742;1.236;2023-02-19T01:27:48;3.10;99.90
44277;DHT22;29973;43.742;1.236;2023-02-19T01:30:14;3.20;99.90
44277;DHT22;29973;43.742;1.236;2023-02-19T01:32:40;3.10;99.90
44277;DHT22;29973;43.742;1.236;2023-02-19T01:35:06;3.20;99.90
44277;DHT22;29973;43.742;1.236;2023-02-19T01:37:32;3.10;99.90
44277;DHT22;29973;43.742;1.236;2023-02-19T01:39:57;3.00;99.90
44277;DHT22;29973;43.742;1.236;2023-02-19T01:42:27;3.00;99.90
44277;DHT22;29973;43.742;1.236;2023-02-19T01:47:43;3.00;99.90
44277;DHT22;29973;43.742;1.236;2023-02-19T01:50:10;3.00;99.90
44277;DHT22;29973;43.742;1.236;2023-02-19T01:52:40;2.90;99.90
44277;DHT22;29973;43.742;1.236;2023-02-19T01:55:07;2.90;99.90
44277;DHT22;29973;43.742;1.236;2023-02-19T01:57:38;2.90;99.90
44277;DHT22;29973;43.742;1.236;2023-02-19T02:00:10;2.90;99.90
44277;DHT22;29973;43.742;1.236;2023-02-19T02:02:38;2.90;99.90
44277;DHT22;29973;43.742;1.236;2023-02-19T02:05:12;2.90;99.90
44277;DHT22;29973;43.742;1.236;2023-02-19T02:07:42;2.90;99.90
44277;DHT22;29973;43.742;1.236;2023-02-19T02:10:30;2.80;99.90
44277;DHT22;29973;43.742;1.236;2023-02-19T02:12:58;2.80;99.90
44277;DHT22;29973;43.742;1.236;2023-02-19T02:15:34;2.70;99.90
44277;DHT22;29973;43.742;1.236;2023-02-19T02:26:57;2.50;99.90
44277;DHT22;29973;43.742;1.236;2023-02-19T02:32:24;2.60;99.90
44277;DHT22;29973;43.742;1.236;2023-02-19T02:34:57;2.80;99.90
44277;DHT22;29973;43.742;1.236;2023-02-19T02:37:27;2.70;99.90
44277;DHT22;29973;43.742;1.236;2023-02-19T02:39:56;2.60;99.90
44277;DHT22;29973;43.742;1.236;2023-02-19T02:42:23;2.50;99.90
44277;DHT22;29973;43.742;1.236;2023-02-19T02:44:55;2.40;99.90
44277;DHT22;29973;43.742;1.236;2023-02-19T02:47:50;2.50;99.90
44277;DHT22;29973;43.742;1.236;2023-02-19T02:50:18;2.40;99.90
44277;DHT22;29973;43.742;1.236;2023-02-19T02:52:47;2.30;99.90
44277;DHT22;29973;43.742;1.236;2023-02-19T02:55:36;2.30;99.90
44277;DHT22;29973;43.742;1.236;2023-02-19T02:58:04;2.20;99.90
44277;DHT22;29973;43.742;1.236;2023-02-19T03:00:38;2.30;99.90
44277;DHT22;29973;43.742;1.236;2023-02-19T03:03:27;2.40;99.90
44277;DHT22;29973;43.742;1.236;2023-02-19T03:06:00;2.30;99.90
44277;DHT22;29973;43.742;1.236;2023-02-19T03:08:33;2.40;99.90
44277;DHT22;29973;43.742;1.236;2023-02-19T03:11:04;2.30;99.90
44277;DHT22;29973;43.742;1.236;2023-02-19T03:13:52;2.20;99.90
44277;DHT22;29973;43.742;1.236;2023-02-19T03:16:37;2.10;99.90
44277;DHT22;29973;43.742;1.236;2023-02-19T03:19:24;2.10;99.90
44277;DHT22;29973;43.742;1.236;2023-02-19T03:22:15;2.00;99.90
44277;DHT22;29973;43.742;1.236;2023-02-19T03:25:06;2.00;99.90
44277;DHT22;29973;43.742;1.236;2023-02-19T03:27:54;2.10;99.90
44277;DHT22;29973;43.742;1.236;2023-02-19T03:30:26;2.10;99.90
44277;DHT22;29973;43.742;1.236;2023-02-19T03:33:32;2.20;99.90
44277;DHT22;29973;43.742;1.236;2023-02-19T03:36:01;2.30;99.90
44277;DHT22;29973;43.742;1.236;2023-02-19T03:38:40;2.20;99.90
44277;DHT22;29973;43.742;1.236;2023-02-19T03:47:14;2.00;99.90
44277;DHT22;29973;43.742;1.236;2023-02-19T03:52:27;2.10;99.90
44277;DHT22;29973;43.742;1.236;2023-02-19T03:55:15;2.00;99.90
44277;DHT22;29973;43.742;1.236;2023-02-19T04:00:33;1.90;99.90
44277;DHT22;29973;43.742;1.236;2023-02-19T04:03:07;2.00;99.90
44277;DHT22;29973;43.742;1.236;2023-02-19T04:05:42;2.10;99.90
44277;DHT22;29973;43.742;1.236;2023-02-19T04:08:16;2.00;99.90
44277;DHT22;29973;43.742;1.236;2023-02-19T04:10:45;1.90;99.90
44277;DHT22;29973;43.742;1.236;2023-02-19T04:13:34;1.90;99.90
44277;DHT22;29973;43.742;1.236;2023-02-19T04:16:07;1.90;99.90
44277;DHT22;29973;43.742;1.236;2023-02-19T04:18:38;2.00;99.90
44277;DHT22;29973;43.742;1.236;2023-02-19T04:21:06;1.90;99.90
44277;DHT22;29973;43.742;1.236;2023-02-19T04:23:39;1.90;99.90
44277;DHT22;29973;43.742;1.236;2023-02-19T04:26:07;1.90;99.90
44277;DHT22;29973;43.742;1.236;2023-02-19T04:28:34;2.00;99.90
44277;DHT22;29973;43.742;1.236;2023-02-19T04:31:00;2.10;99.90
44277;DHT22;29973;43.742;1.236;2023-02-19T04:33:26;2.10;99.90
44277;DHT22;29973;43.742;1.236;2023-02-19T04:35:55;1.90;99.90
44277;DHT22;29973;43.742;1.236;2023-02-19T04:38:21;1.80;99.90
44277;DHT22;29973;43.742;1.236;2023-02-19T04:40:47;1.70;99.90
44277;DHT22;29973;43.742;1.236;2023-02-19T04:43:16;1.70;99.90
44277;DHT22;29973;43.742;1.236;2023-02-19T04:45:43;1.70;99.90
44277;DHT22;29973;43.742;1.236;2023-02-19T04:48:09;1.80;99.90
44277;DHT22;29973;43.742;1.236;2023-02-19T04:50:37;1.90;99.90
44277;DHT22;29973;43.742;1.236;2023-02-19T04:53:03;1.70;99.90
44277;DHT22;29973;43.742;1.236;2023-02-19T04:55:30;1.90;99.90
44277;DHT22;29973;43.742;1.236;2023-02-19T04:57:56;1.80;99.90
44277;DHT22;29973;43.742;1.236;2023-02-19T05:00:22;1.70;99.90
44277;DHT22;29973;43.742;1.236;2023-02-19T05:02:48;1.60;99.90
44277;DHT22;29973;43.742;1.236;2023-02-19T05:05:14;1.80;99.90
44277;DHT22;29973;43.742;1.236;2023-02-19T05:07:40;1.80;99.90
44277;DHT22;29973;43.742;1.236;2023-02-19T05:10:05;1.80;99.90
44277;DHT22;29973;43.742;1.236;2023-02-19T05:12:31;1.90;99.90
44277;DHT22;29973;43.742;1.236;2023-02-19T05:14:57;1.80;99.90
44277;DHT22;29973;43.742;1.236;2023-02-19T05:17:23;1.70;99.90
44277;DHT22;29973;43.742;1.236;2023-02-19T05:19:48;1.60;99.90
44277;DHT22;29973;43.742;1.236;2023-02-19T05:22:14;1.50;99.90
44277;DHT22;29973;43.742;1.236;2023-02-19T05:24:41;1.60;99.90
44277;DHT22;29973;43.742;1.236;2023-02-19T05:27:08;1.50;99.90
44277;DHT22;29973;43.742;1.236;2023-02-19T05:29:35;1.50;99.90
44277;DHT22;29973;43.742;1.236;2023-02-19T05:32:00;1.50;99.90
44277;DHT22;29973;43.742;1.236;2023-02-19T05:34:26;1.40;99.90
44277;DHT22;29973;43.742;1.236;2023-02-19T05:36:52;1.50;99.90
44277;DHT22;29973;43.742;1.236;2023-02-19T05:39:19;1.40;99.90
44277;DHT22;29973;43.742;1.236;2023-02-19T05:41:45;1.40;99.90
44277;DHT22;29973;43.742;1.236;2023-02-19T05:44:10;1.50;99.90
44277;DHT22;29973;43.742;1.236;2023-02-19T05:46:36;1.60;99.90
44277;DHT22;29973;43.742;1.236;2023-02-19T05:49:05;1.50;99.90
44277;DHT22;29973;43.742;1.236;2023-02-19T05:51:31;1.40;99.90
44277;DHT22;29973;43.742;1.236;2023-02-19T05:53:57;1.40;99.90
44277;DHT22;29973;43.742;1.236;2023-02-19T05:56:33;1.40;99.90
44277;DHT22;29973;43.742;1.236;2023-02-19T05:59:19;1.30;99.90
44277;DHT22;29973;43.742;1.236;2023-02-19T06:01:46;1.20;99.90
44277;DHT22;29973;43.742;1.236;2023-02-19T06:04:13;1.10;99.90
44277;DHT22;29973;43.742;1.236;2023-02-19T06:06:39;1.30;99.90
44277;DHT22;29973;43.742;1.236;2023-02-19T06:09:07;1.20;99.90
44277;DHT22;29973;43.742;1.236;2023-02-19T06:11:33;1.30;99.90
44277;DHT22;29973;43.742;1.236;2023-02-19T06:13:59;1.10;99.90
44277;DHT22;29973;43.742;1.236;2023-02-19T06:16:25;1.10;99.90
44277;DHT22;29973;43.742;1.236;2023-02-19T06:18:52;1.20;99.90
44277;DHT22;29973;43.742;1.236;2023-02-19T06:21:20;1.30;99.90
44277;DHT22;29973;43.742;1.236;2023-02-19T06:23:48;1.20;99.90
44277;DHT22;29973;43.742;1.236;2023-02-19T06:26:15;1.20;99.90
44277;DHT22;29973;43.742;1.236;2023-02-19T06:28:46;1.20;99.90
44277;DHT22;29973;43.742;1.236;2023-02-19T06:31:16;1.10;99.90
44277;DHT22;29973;43.742;1.236;2023-02-19T06:33:43;1.20;99.90
44277;DHT22;29973;43.742;1.236;2023-02-19T06:36:18;1.20;99.90
44277;DHT22;29973;43.742;1.236;2023-02-19T06:38:44;1.10;99.90
44277;DHT22;29973;43.742;1.236;2023-02-19T06:41:11;1.00;99.90
44277;DHT22;29973;43.742;1.236;2023-02-19T06:43:38;1.00;99.90
44277;DHT22;29973;43.742;1.236;2023-02-19T06:46:05;0.90;99.90
44277;DHT22;29973;43.742;1.236;2023-02-19T06:48:32;1.30;99.90
44277;DHT22;29973;43.742;1.236;2023-02-19T06:50:58;1.30;99.90
44277;DHT22;29973;43.742;1.236;2023-02-19T06:53:24;1.30;99.90
44277;DHT22;29973;43.742;1.236;2023-02-19T06:56:02;1.50;99.90
44277;DHT22;29973;43.742;1.236;2023-02-19T06:58:29;1.30;99.90
44277;DHT22;29973;43.742;1.236;2023-02-19T07:00:55;1.30;99.90
44277;DHT22;29973;43.742;1.236;2023-02-19T07:03:23;1.30;99.90
44277;DHT22;29973;43.742;1.236;2023-02-19T07:05:51;1.40;99.90
44277;DHT22;29973;43.742;1.236;2023-02-19T07:08:17;1.50;99.90
44277;DHT22;29973;43.742;1.236;2023-02-19T07:10:43;1.50;99.90
44277;DHT22;29973;43.742;1.236;2023-02-19T07:13:09;1.60;99.90
44277;DHT22;29973;43.742;1.236;2023-02-19T07:15:36;1.60;99.90
44277;DHT22;29973;43.742;1.236;2023-02-19T07:18:02;1.60;99.90
44277;DHT22;29973;43.742;1.236;2023-02-19T07:20:29;1.80;99.90
44277;DHT22;29973;43.742;1.236;2023-02-19T07:22:56;1.80;99.90
44277;DHT22;29973;43.742;1.236;2023-02-19T07:25:22;1.90;99.90
44277;DHT22;29973;43.742;1.236;2023-02-19T07:27:48;2.10;99.90
44277;DHT22;29973;43.742;1.236;2023-02-19T07:30:14;2.30;99.90
44277;DHT22;29973;43.742;1.236;2023-02-19T07:32:40;2.40;99.90
44277;DHT22;29973;43.742;1.236;2023-02-19T07:35:07;2.40;99.90
44277;DHT22;29973;43.742;1.236;2023-02-19T07:37:32;2.40;99.90
44277;DHT22;29973;43.742;1.236;2023-02-19T07:39:58;2.50;99.90
44277;DHT22;29973;43.742;1.236;2023-02-19T07:42:24;2.50;99.90
44277;DHT22;29973;43.742;1.236;2023-02-19T07:44:50;2.70;99.90
44277;DHT22;29973;43.742;1.236;2023-02-19T07:47:17;3.00;99.90
44277;DHT22;29973;43.742;1.236;2023-02-19T07:49:43;3.00;99.90
44277;DHT22;29973;43.742;1.236;2023-02-19T07:52:09;3.10;99.90
44277;DHT22;29973;43.742;1.236;2023-02-19T07:54:35;3.20;99.90
44277;DHT22;29973;43.742;1.236;2023-02-19T07:57:01;3.40;99.90
44277;DHT22;29973;43.742;1.236;2023-02-19T07:59:27;4.00;99.90
44277;DHT22;29973;43.742;1.236;2023-02-19T08:01:53;4.20;99.90
44277;DHT22;29973;43.742;1.236;2023-02-19T08:04:37;4.20;99.90
44277;DHT22;29973;43.742;1.236;2023-02-19T08:07:06;4.10;99.90
44277;DHT22;29973;43.742;1.236;2023-02-19T08:09:32;4.20;99.90
44277;DHT22;29973;43.742;1.236;2023-02-19T08:11:58;4.30;99.90
44277;DHT22;29973;43.742;1.236;2023-02-19T08:14:42;4.40;99.90
44277;DHT22;29973;43.742;1.236;2023-02-19T08:17:08;4.60;99.90
44277;DHT22;29973;43.742;1.236;2023-02-19T08:19:34;4.80;99.90
44277;DHT22;29973;43.742;1.236;2023-02-19T08:22:20;5.00;99.90
44277;DHT22;29973;43.742;1.236;2023-02-19T08:24:46;5.20;99.90
44277;DHT22;29973;43.742;1.236;2023-02-19T08:27:12;5.40;99.90
44277;DHT22;29973;43.742;1.236;2023-02-19T08:29:38;5.60;99.90
44277;DHT22;29973;43.742;1.236;2023-02-19T08:32:04;5.80;99.90
44277;DHT22;29973;43.742;1.236;2023-02-19T08:34:30;5.80;99.90
44277;DHT22;29973;43.742;1.236;2023-02-19T08:36:55;5.90;99.90
44277;DHT22;29973;43.742;1.236;2023-02-19T08:39:23;6.00;99.90
44277;DHT22;29973;43.742;1.236;2023-02-19T08:41:51;6.10;99.90
44277;DHT22;29973;43.742;1.236;2023-02-19T08:44:20;6.30;99.90
44277;DHT22;29973;43.742;1.236;2023-02-19T08:46:46;6.60;99.90
44277;DHT22;29973;43.742;1.236;2023-02-19T08:49:12;6.80;99.90
44277;DHT22;29973;43.742;1.236;2023-02-19T08:51:37;6.80;99.90
44277;DHT22;29973;43.742;1.236;2023-02-19T08:54:03;7.00;99.90
44277;DHT22;29973;43.742;1.236;2023-02-19T08:56:29;7.10;99.90
44277;DHT22;29973;43.742;1.236;2023-02-19T08:58:55;7.20;99.90
44277;DHT22;29973;43.742;1.236;2023-02-19T09:01:21;7.30;99.90
44277;DHT22;29973;43.742;1.236;2023-02-19T09:03:49;7.50;99.90
44277;DHT22;29973;43.742;1.236;2023-02-19T09:06:45;7.90;99.90
44277;DHT22;29973;43.742;1.236;2023-02-19T09:09:10;8.40;99.90
44277;DHT22;29973;43.742;1.236;2023-02-19T09:11:38;8.60;99.90
44277;DHT22;29973;43.742;1.236;2023-02-19T09:14:04;8.90;99.90
44277;DHT22;29973;43.742;1.236;2023-02-19T09:16:35;9.00;99.90
44277;DHT22;29973;43.742;1.236;2023-02-19T09:19:02;8.90;99.90
44277;DHT22;29973;43.742;1.236;2023-02-19T09:21:27;9.00;99.90
44277;DHT22;29973;43.742;1.236;2023-02-19T09:23:53;9.20;99.90
44277;DHT22;29973;43.742;1.236;2023-02-19T09:26:19;9.30;99.90
44277;DHT22;29973;43.742;1.236;2023-02-19T09:28:48;9.50;99.90
44277;DHT22;29973;43.742;1.236;2023-02-19T09:31:42;9.50;99.90
44277;DHT22;29973;43.742;1.236;2023-02-19T09:38:08;10.00;99.90
44277;DHT22;29973;43.742;1.236;2023-02-19T09:40:36;10.20;99.90
44277;DHT22;29973;43.742;1.236;2023-02-19T09:43:08;10.40;99.90
44277;DHT22;29973;43.742;1.236;2023-02-19T09:45:36;10.60;99.90
44277;DHT22;29973;43.742;1.236;2023-02-19T09:48:06;10.80;99.90
44277;DHT22;29973;43.742;1.236;2023-02-19T09:50:40;10.90;99.90
44277;DHT22;29973;43.742;1.236;2023-02-19T09:53:20;11.10;99.90
44277;DHT22;29973;43.742;1.236;2023-02-19T09:55:48;11.20;99.90
44277;DHT22;29973;43.742;1.236;2023-02-19T09:58:33;11.50;99.90
44277;DHT22;29973;43.742;1.236;2023-02-19T10:01:03;13.20;99.90
44277;DHT22;29973;43.742;1.236;2023-02-19T10:03:36;15.10;99.90
44277;DHT22;29973;43.742;1.236;2023-02-19T10:06:20;16.30;99.90
44277;DHT22;29973;43.742;1.236;2023-02-19T10:08:54;16.10;99.00
44277;DHT22;29973;43.742;1.236;2023-02-19T10:11:21;16.60;97.80
44277;DHT22;29973;43.742;1.236;2023-02-19T10:13:48;16.80;96.70
44277;DHT22;29973;43.742;1.236;2023-02-19T10:16:25;17.70;94.80
44277;DHT22;29973;43.742;1.236;2023-02-19T10:18:52;17.90;93.10
44277;DHT22;29973;43.742;1.236;2023-02-19T10:21:25;17.60;93.00
44277;DHT22;29973;43.742;1.236;2023-02-19T10:23:59;18.40;92.50
44277;DHT22;29973;43.742;1.236;2023-02-19T10:26:33;20.00;86.50
44277;DHT22;29973;43.742;1.236;2023-02-19T10:29:04;20.50;77.20
44277;DHT22;29973;43.742;1.236;2023-02-19T10:32:02;21.30;76.10
44277;DHT22;29973;43.742;1.236;2023-02-19T10:34:42;22.10;73.50
44277;DHT22;29973;43.742;1.236;2023-02-19T10:41:13;21.60;72.90
44277;DHT22;29973;43.742;1.236;2023-02-19T10:43:42;21.50;72.90
44277;DHT22;29973;43.742;1.236;2023-02-19T10:46:30;19.90;77.70
44277;DHT22;29973;43.742;1.236;2023-02-19T10:49:16;20.40;74.70
44277;DHT22;29973;43.742;1.236;2023-02-19T10:51:47;21.00;72.30
44277;DHT22;29973;43.742;1.236;2023-02-19T10:57:48;21.30;71.00
44277;DHT22;29973;43.742;1.236;2023-02-19T11:02:42;22.60;65.80
44277;DHT22;29973;43.742;1.236;2023-02-19T11:10:32;22.10;66.10
44277;DHT22;29973;43.742;1.236;2023-02-19T11:13:24;21.40;67.30
44277;DHT22;29973;43.742;1.236;2023-02-19T12:10:57;24.20;55.40
44277;DHT22;29973;43.742;1.236;2023-02-19T12:16:37;25.00;57.20
44277;DHT22;29973;43.742;1.236;2023-02-19T12:31:08;24.70;55.00
44277;DHT22;29973;43.742;1.236;2023-02-19T12:34:10;26.40;54.40
44277;DHT22;29973;43.742;1.236;2023-02-19T12:39:46;26.80;51.70
44277;DHT22;29973;43.742;1.236;2023-02-19T12:45:18;26.10;53.10
44277;DHT22;29973;43.742;1.236;2023-02-19T12:47:56;26.10;52.70
44277;DHT22;29973;43.742;1.236;2023-02-19T12:50:25;25.80;53.10
44277;DHT22;29973;43.742;1.236;2023-02-19T12:52:59;27.60;51.50
44277;DHT22;29973;43.742;1.236;2023-02-19T12:55:32;26.80;50.20
44277;DHT22;29973;43.742;1.236;2023-02-19T12:58:01;26.70;49.40
44277;DHT22;29973;43.742;1.236;2023-02-19T13:00:40;26.40;50.40
44277;DHT22;29973;43.742;1.236;2023-02-19T13:06:44;25.80;51.90
44277;DHT22;29973;43.742;1.236;2023-02-19T13:09:37;25.90;51.20
44277;DHT22;29973;43.742;1.236;2023-02-19T13:12:07;26.10;51.30
44277;DHT22;29973;43.742;1.236;2023-02-19T13:15:02;26.80;51.30
44277;DHT22;29973;43.742;1.236;2023-02-19T13:20:34;26.00;50.60
44277;DHT22;29973;43.742;1.236;2023-02-19T13:31:03;26.50;50.90
44277;DHT22;29973;43.742;1.236;2023-02-19T13:33:44;26.80;49.20
44277;DHT22;29973;43.742;1.236;2023-02-19T13:36:15;25.70;49.80
44277;DHT22;29973;43.742;1.236;2023-02-19T13:38:46;26.60;51.50
44277;DHT22;29973;43.742;1.236;2023-02-19T13:41:27;26.70;49.30
44277;DHT22;29973;43.742;1.236;2023-02-19T13:44:00;25.80;53.30
44277;DHT22;29973;43.742;1.236;2023-02-19T13:46:39;26.10;51.10
44277;DHT22;29973;43.742;1.236;2023-02-19T13:51:55;26.30;48.00
44277;DHT22;29973;43.742;1.236;2023-02-19T13:54:25;26.10;50.80
44277;DHT22;29973;43.742;1.236;2023-02-19T13:59:57;26.60;48.00
44277;DHT22;29973;43.742;1.236;2023-02-19T14:02:31;25.30;50.60
44277;DHT22;29973;43.742;1.236;2023-02-19T14:05:05;26.90;48.30
44277;DHT22;29973;43.742;1.236;2023-02-19T14:07:53;26.80;49.70
44277;DHT22;29973;43.742;1.236;2023-02-19T14:10:51;26.90;48.90
44277;DHT22;29973;43.742;1.236;2023-02-19T14:18:55;27.40;49.50
44277;DHT22;29973;43.742;1.236;2023-02-19T14:21:23;27.40;48.00
44277;DHT22;29973;43.742;1.236;2023-02-19T14:23:55;26.40;48.70
44277;DHT22;29973;43.742;1.236;2023-02-19T14:26:23;24.10;53.50
44277;DHT22;29973;43.742;1.236;2023-02-19T14:28:51;26.70;50.40
44277;DHT22;29973;43.742;1.236;2023-02-19T14:31:25;26.10;49.40
44277;DHT22;29973;43.742;1.236;2023-02-19T14:34:15;27.30;49.20
44277;DHT22;29973;43.742;1.236;2023-02-19T14:36:57;26.50;48.80
44277;DHT22;29973;43.742;1.236;2023-02-19T14:39:30;27.60;49.10
44277;DHT22;29973;43.742;1.236;2023-02-19T14:42:07;27.40;46.20
44277;DHT22;29973;43.742;1.236;2023-02-19T14:52:06;26.00;50.30
44277;DHT22;29973;43.742;1.236;2023-02-19T14:54:41;27.10;48.70
44277;DHT22;29973;43.742;1.236;2023-02-19T14:57:28;26.70;48.70
44277;DHT22;29973;43.742;1.236;2023-02-19T15:00:03;27.40;48.10
44277;DHT22;29973;43.742;1.236;2023-02-19T15:02:31;27.80;48.10
44277;DHT22;29973;43.742;1.236;2023-02-19T15:04:57;26.50;49.60
44277;DHT22;29973;43.742;1.236;2023-02-19T15:07:26;25.10;51.80
44277;DHT22;29973;43.742;1.236;2023-02-19T15:09:56;25.60;51.70
44277;DHT22;29973;43.742;1.236;2023-02-19T15:12:25;27.40;48.20
44277;DHT22;29973;43.742;1.236;2023-02-19T15:14:54;25.40;50.60
44277;DHT22;29973;43.742;1.236;2023-02-19T15:17:29;25.20;51.70
44277;DHT22;29973;43.742;1.236;2023-02-19T15:20:18;25.70;51.70
44277;DHT22;29973;43.742;1.236;2023-02-19T15:22:44;26.30;48.90
44277;DHT22;29973;43.742;1.236;2023-02-19T15:25:19;25.20;50.10
44277;DHT22;29973;43.742;1.236;2023-02-19T15:27:47;25.00;53.70
44277;DHT22;29973;43.742;1.236;2023-02-19T15:30:22;25.60;50.70
44277;DHT22;29973;43.742;1.236;2023-02-19T15:40:30;24.80;51.30
44277;DHT22;29973;43.742;1.236;2023-02-19T15:42:58;25.40;51.30
44277;DHT22;29973;43.742;1.236;2023-02-19T15:45:42;26.30;50.00
44277;DHT22;29973;43.742;1.236;2023-02-19T15:48:16;25.50;49.30
44277;DHT22;29973;43.742;1.236;2023-02-19T15:50:47;24.40;52.40
44277;DHT22;29973;43.742;1.236;2023-02-19T15:53:26;24.90;52.50
44277;DHT22;29973;43.742;1.236;2023-02-19T15:56:03;25.60;51.80
44277;DHT22;29973;43.742;1.236;2023-02-19T15:59:20;25.70;51.00
44277;DHT22;29973;43.742;1.236;2023-02-19T16:01:39;25.80;50.60
44277;DHT22;29973;43.742;1.236;2023-02-19T16:04:11;26.00;50.10
44277;DHT22;29973;43.742;1.236;2023-02-19T16:07:21;25.10;51.50
44277;DHT22;29973;43.742;1.236;2023-02-19T16:09:48;24.80;52.20
44277;DHT22;29973;43.742;1.236;2023-02-19T16:12:23;24.40;53.40
44277;DHT22;29973;43.742;1.236;2023-02-19T16:14:50;23.70;55.20
44277;DHT22;29973;43.742;1.236;2023-02-19T16:17:20;22.70;55.50
44277;DHT22;29973;43.742;1.236;2023-02-19T16:19:53;23.10;57.00
44277;DHT22;29973;43.742;1.236;2023-02-19T16:22:27;22.60;56.80
44277;DHT22;29973;43.742;1.236;2023-02-19T16:24:56;21.00;61.00
44277;DHT22;29973;43.742;1.236;2023-02-19T16:27:41;20.90;60.80
44277;DHT22;29973;43.742;1.236;2023-02-19T16:32:39;18.40;71.40
44277;DHT22;29973;43.742;1.236;2023-02-19T16:35:26;17.70;75.10
44277;DHT22;29973;43.742;1.236;2023-02-19T16:37:58;17.00;78.90
44277;DHT22;29973;43.742;1.236;2023-02-19T16:45:30;15.90;87.00
44277;DHT22;29973;43.742;1.236;2023-02-19T16:47:56;15.70;88.80
44277;DHT22;29973;43.742;1.236;2023-02-19T16:50:25;15.40;90.40
44277;DHT22;29973;43.742;1.236;2023-02-19T16:52:56;15.20;91.50
44277;DHT22;29973;43.742;1.236;2023-02-19T16:55:23;15.00;92.10
44277;DHT22;29973;43.742;1.236;2023-02-19T16:57:49;14.90;92.60
44277;DHT22;29973;43.742;1.236;2023-02-19T17:00:19;14.70;93.50
44277;DHT22;29973;43.742;1.236;2023-02-19T17:02:49;14.40;94.50
44277;DHT22;29973;43.742;1.236;2023-02-19T17:05:17;14.10;95.50
44277;DHT22;29973;43.742;1.236;2023-02-19T17:07:43;13.90;96.60
44277;DHT22;29973;43.742;1.236;2023-02-19T17:10:16;13.70;97.80
44277;DHT22;29973;43.742;1.236;2023-02-19T17:12:42;13.40;98.80
44277;DHT22;29973;43.742;1.236;2023-02-19T17:15:08;13.10;99.90
44277;DHT22;29973;43.742;1.236;2023-02-19T17:17:34;12.90;99.90
44277;DHT22;29973;43.742;1.236;2023-02-19T17:20:00;12.60;99.90
44277;DHT22;29973;43.742;1.236;2023-02-19T17:22:26;12.40;99.90
44277;DHT22;29973;43.742;1.236;2023-02-19T17:24:52;12.30;99.90
44277;DHT22;29973;43.742;1.236;2023-02-19T17:27:19;12.00;99.90
44277;DHT22;29973;43.742;1.236;2023-02-19T17:29:45;11.80;99.90
44277;DHT22;29973;43.742;1.236;2023-02-19T17:32:12;11.70;99.90
44277;DHT22;29973;43.742;1.236;2023-02-19T17:34:38;11.50;99.90
44277;DHT22;29973;43.742;1.236;2023-02-19T17:37:04;11.50;99.90
44277;DHT22;29973;43.742;1.236;2023-02-19T17:39:30;11.20;99.90
44277;DHT22;29973;43.742;1.236;2023-02-19T17:41:55;11.20;99.90
44277;DHT22;29973;43.742;1.236;2023-02-19T17:44:21;10.90;99.90
44277;DHT22;29973;43.742;1.236;2023-02-19T17:46:47;10.70;99.90
44277;DHT22;29973;43.742;1.236;2023-02-19T17:49:13;10.60;99.90
44277;DHT22;29973;43.742;1.236;2023-02-19T17:51:39;10.80;99.90
44277;DHT22;29973;43.742;1.236;2023-02-19T17:54:04;10.80;99.90
44277;DHT22;29973;43.742;1.236;2023-02-19T17:56:30;10.70;99.90
44277;DHT22;29973;43.742;1.236;2023-02-19T17:58:56;10.60;99.90
44277;DHT22;29973;43.742;1.236;2023-02-19T18:01:23;10.60;99.90
44277;DHT22;29973;43.742;1.236;2023-02-19T18:03:50;10.50;99.90
44277;DHT22;29973;43.742;1.236;2023-02-19T18:06:16;10.40;99.90
44277;DHT22;29973;43.742;1.236;2023-02-19T18:08:51;10.20;99.90
44277;DHT22;29973;43.742;1.236;2023-02-19T18:11:18;10.20;99.90
44277;DHT22;29973;43.742;1.236;2023-02-19T18:13:44;10.10;99.90
44277;DHT22;29973;43.742;1.236;2023-02-19T18:16:10;9.90;99.90
44277;DHT22;29973;43.742;1.236;2023-02-19T18:18:36;9.80;99.90
44277;DHT22;29973;43.742;1.236;2023-02-19T18:21:03;9.80;99.90
44277;DHT22;29973;43.742;1.236;2023-02-19T18:23:31;9.80;99.90
44277;DHT22;29973;43.742;1.236;2023-02-19T18:25:57;9.60;99.90
44277;DHT22;29973;43.742;1.236;2023-02-19T18:28:23;9.50;99.90
44277;DHT22;29973;43.742;1.236;2023-02-19T18:30:49;9.40;99.90
44277;DHT22;29973;43.742;1.236;2023-02-19T18:35:57;9.20;99.90
44277;DHT22;29973;43.742;1.236;2023-02-19T18:38:23;9.20;99.90
44277;DHT22;29973;43.742;1.236;2023-02-19T18:40:49;9.20;99.90
44277;DHT22;29973;43.742;1.236;2023-02-19T18:43:15;9.20;99.90
44277;DHT22;29973;43.742;1.236;2023-02-19T18:45:41;9.20;99.90
44277;DHT22;29973;43.742;1.236;2023-02-19T18:48:07;9.20;99.90
44277;DHT22;29973;43.742;1.236;2023-02-19T18:50:33;9.10;99.90
44277;DHT22;29973;43.742;1.236;2023-02-19T18:52:59;9.00;99.90
44277;DHT22;29973;43.742;1.236;2023-02-19T18:55:25;8.90;99.90
44277;DHT22;29973;43.742;1.236;2023-02-19T18:57:53;8.90;99.90